createdAt,value
2023-03-28T00:01:06.079Z,102741.31
2023-03-28T00:03:36.363Z,102749.41
2023-03-28T00:06:09.863Z,102679.63
2023-03-28T00:08:39.442Z,102749.44
2023-03-28T00:11:12.725Z,102736.03
2023-03-28T00:13:39.590Z,102728.38
2023-03-28T00:16:12.942Z,102747.81
2023-03-28T00:18:41.584Z,102745.22
2023-03-28T00:21:23.744Z,102746.19
2023-03-28T00:23:55.336Z,102707.50
2023-03-28T00:26:26.679Z,102710.06
2023-03-28T00:29:01.553Z,102741.97
2023-03-28T00:31:28.952Z,102729.75
2023-03-28T00:33:59.033Z,102746.56
2023-03-28T00:36:26.782Z,102743.94
2023-03-28T00:38:53.990Z,102671.94
2023-03-28T00:41:26.673Z,102703.59
2023-03-28T00:43:54.667Z,102745.16
2023-03-28T00:46:27.176Z,102746.88
2023-03-28T00:49:01.157Z,102728.50
2023-03-28T00:51:32.301Z,102749.75
2023-03-28T00:54:02.240Z,102746.19
2023-03-28T00:56:34.874Z,102753.41
2023-03-28T00:59:11.392Z,102712.91
2023-03-28T01:01:40.405Z,102756.22
2023-03-28T01:04:10.415Z,102754.44
2023-03-28T01:06:42.198Z,102748.28
2023-03-28T01:09:09.340Z,102751.94
2023-03-28T01:11:39.773Z,102745.78
2023-03-28T01:14:09.234Z,102751.13
2023-03-28T01:16:42.001Z,102715.81
2023-03-28T01:19:26.716Z,102706.16
2023-03-28T01:22:14.966Z,102737.72
2023-03-28T01:25:06.874Z,102736.84
2023-03-28T01:28:24.284Z,102737.06
2023-03-28T01:31:00.034Z,102734.38
2023-03-28T01:33:43.740Z,102730.81
2023-03-28T01:36:47.101Z,102738.13
2023-03-28T01:39:23.379Z,102736.50
2023-03-28T01:41:56.420Z,102736.41
2023-03-28T01:44:41.938Z,102736.50
2023-03-28T01:47:30.333Z,102729.53
2023-03-28T01:50:10.393Z,102728.53
2023-03-28T01:52:57.706Z,102730.41
2023-03-28T01:55:33.067Z,102713.72
2023-03-28T01:58:23.553Z,102720.81
2023-03-28T02:00:56.581Z,102728.06
2023-03-28T02:03:37.834Z,102732.41
2023-03-28T02:06:08.473Z,102725.47
2023-03-28T02:08:42.223Z,102632.13
2023-03-28T02:11:10.702Z,102718.47
2023-03-28T02:13:45.110Z,102728.22
2023-03-28T02:16:15.095Z,102722.09
2023-03-28T02:18:47.775Z,102646.28
2023-03-28T02:21:19.508Z,102727.44
2023-03-28T02:23:52.323Z,102728.38
2023-03-28T02:26:20.388Z,102725.81
2023-03-28T02:28:50.759Z,102694.94
2023-03-28T02:31:17.772Z,102701.03
2023-03-28T02:33:49.649Z,102726.78
2023-03-28T02:36:47.417Z,102641.13
2023-03-28T02:39:43.674Z,102719.72
2023-03-28T02:42:25.539Z,102714.44
2023-03-28T02:45:22.873Z,102720.53
2023-03-28T02:48:18.753Z,102725.16
2023-03-28T02:50:58.753Z,102723.31
2023-03-28T02:53:33.058Z,102726.94
2023-03-28T02:56:09.253Z,102727.00
2023-03-28T02:58:44.837Z,102720.75
2023-03-28T03:01:14.742Z,102711.91
2023-03-28T03:03:43.814Z,102711.94
2023-03-28T03:06:13.036Z,102717.44
2023-03-28T03:08:39.827Z,102713.91
2023-03-28T03:11:06.840Z,102697.03
2023-03-28T03:13:33.468Z,102707.81
2023-03-28T03:16:00.392Z,102711.38
2023-03-28T03:18:29.388Z,102716.75
2023-03-28T03:20:56.090Z,102716.75
2023-03-28T03:23:22.694Z,102713.19
2023-03-28T03:25:50.767Z,102708.78
2023-03-28T03:28:19.666Z,102708.72
2023-03-28T03:30:48.666Z,102686.81
2023-03-28T03:33:16.758Z,102680.59
2023-03-28T03:35:46.039Z,102716.63
2023-03-28T03:38:13.294Z,102686.47
2023-03-28T03:40:40.732Z,102581.56
2023-03-28T03:43:07.376Z,102716.41
2023-03-28T03:45:33.972Z,102680.28
2023-03-28T03:48:00.827Z,102709.50
2023-03-28T03:50:29.999Z,102686.50
2023-03-28T03:52:57.850Z,102701.47
2023-03-28T03:55:26.675Z,102708.59
2023-03-28T03:57:53.473Z,102712.03
2023-03-28T04:00:22.699Z,102716.63
2023-03-28T04:02:49.280Z,102724.56
2023-03-28T04:05:16.365Z,102654.75
2023-03-28T04:07:43.181Z,102718.31
2023-03-28T04:13:52.984Z,102699.91
2023-03-28T04:16:20.936Z,102711.56
2023-03-28T04:18:52.936Z,102687.75
2023-03-28T04:21:27.609Z,102716.13
2023-03-28T04:23:55.363Z,102711.63
2023-03-28T04:26:26.098Z,102688.72
2023-03-28T04:28:53.345Z,102705.47
2023-03-28T04:31:21.799Z,102610.13
2023-03-28T04:33:49.242Z,102698.34
2023-03-28T04:36:18.929Z,102709.09
2023-03-28T04:38:48.282Z,102711.84
2023-03-28T04:41:18.071Z,102705.66
2023-03-28T04:43:47.737Z,102660.72
2023-03-28T04:46:14.337Z,102704.66
2023-03-28T04:48:41.009Z,102704.59
2023-03-28T04:51:08.048Z,102676.38
2023-03-28T04:53:34.738Z,102687.06
2023-03-28T04:56:03.432Z,102702.94
2023-03-28T04:58:32.526Z,102682.69
2023-03-28T05:01:03.791Z,102704.81
2023-03-28T05:03:30.640Z,102715.72
2023-03-28T05:05:57.350Z,102706.81
2023-03-28T05:08:27.824Z,102718.34
2023-03-28T05:10:55.333Z,102691.06
2023-03-28T05:13:25.518Z,102720.09
2023-03-28T05:15:52.121Z,102696.28
2023-03-28T05:18:21.805Z,102727.22
2023-03-28T05:20:48.361Z,102629.25
2023-03-28T05:23:15.031Z,102729.75
2023-03-28T05:25:41.750Z,102713.69
2023-03-28T05:28:08.365Z,102725.91
2023-03-28T05:30:35.391Z,102699.31
2023-03-28T05:33:02.038Z,102718.88
2023-03-28T05:35:31.199Z,102732.78
2023-03-28T05:38:03.020Z,102744.50
2023-03-28T05:40:34.348Z,102704.63
2023-03-28T05:43:01.035Z,102718.53
2023-03-28T05:45:27.656Z,102738.78
2023-03-28T05:47:55.678Z,102743.19
2023-03-28T05:50:23.180Z,102712.91
2023-03-28T05:52:49.811Z,102738.41
2023-03-28T05:55:16.438Z,102721.53
2023-03-28T05:57:47.498Z,102731.06
2023-03-28T06:00:15.193Z,102730.06
2023-03-28T06:02:43.298Z,102712.28
2023-03-28T06:05:13.890Z,102743.03
2023-03-28T06:07:42.905Z,102720.19
2023-03-28T06:10:11.593Z,102721.13
2023-03-28T06:12:38.236Z,102697.34
2023-03-28T06:15:05.982Z,102723.75
2023-03-28T06:17:32.722Z,102720.38
2023-03-28T06:20:05.965Z,102718.56
2023-03-28T06:22:32.973Z,102720.28
2023-03-28T06:25:02.010Z,102715.41
2023-03-28T06:27:28.649Z,102712.81
2023-03-28T06:29:55.448Z,102704.56
2023-03-28T06:32:22.439Z,102730.25
2023-03-28T06:34:51.366Z,102697.72
2023-03-28T06:37:18.071Z,102734.81
2023-03-28T06:39:44.739Z,102739.91
2023-03-28T06:42:11.493Z,102731.69
2023-03-28T06:44:40.814Z,102735.22
2023-03-28T06:47:09.928Z,102741.47
2023-03-28T06:49:36.551Z,102736.00
2023-03-28T06:52:03.420Z,102708.53
2023-03-28T06:54:29.987Z,102733.03
2023-03-28T06:56:56.564Z,102732.78
2023-03-28T06:59:23.237Z,102701.31
2023-03-28T07:01:49.916Z,102700.78
2023-03-28T07:04:16.610Z,102736.81
2023-03-28T07:06:43.210Z,102714.63
2023-03-28T07:09:10.968Z,102741.69
2023-03-28T07:11:37.854Z,102747.69
2023-03-28T07:14:04.502Z,102738.72
2023-03-28T07:16:31.252Z,102725.06
2023-03-28T07:18:58.080Z,102685.03
2023-03-28T07:21:26.946Z,102747.47
2023-03-28T07:23:53.541Z,102749.03
2023-03-28T07:26:22.427Z,102749.09
2023-03-28T07:28:54.136Z,102732.69
2023-03-28T07:31:21.397Z,102752.38
2023-03-28T07:33:51.336Z,102755.72
2023-03-28T07:36:23.160Z,102756.09
2023-03-28T07:38:50.300Z,102746.50
2023-03-28T07:41:17.468Z,102742.53
2023-03-28T07:43:46.825Z,102746.38
2023-03-28T07:46:15.258Z,102689.47
2023-03-28T07:48:42.930Z,102748.78
2023-03-28T07:51:10.808Z,102664.72
2023-03-28T07:53:38.210Z,102744.16
2023-03-28T07:56:12.474Z,102742.94
2023-03-28T07:58:41.033Z,102746.34
2023-03-28T08:01:11.082Z,102727.41
2023-03-28T08:03:37.849Z,102732.97
2023-03-28T08:06:13.775Z,102729.38
2023-03-28T08:08:47.154Z,102729.13
2023-03-28T08:11:13.841Z,102738.69
2023-03-28T08:13:42.705Z,102705.81
2023-03-28T08:16:09.991Z,102738.63
2023-03-28T08:18:36.639Z,102737.47
2023-03-28T08:21:03.801Z,102730.16
2023-03-28T08:23:30.768Z,102713.91
2023-03-28T08:26:06.314Z,102730.63
2023-03-28T08:28:35.211Z,102729.75
2023-03-28T08:31:02.726Z,102723.81
2023-03-28T08:33:34.555Z,102721.94
2023-03-28T08:36:01.226Z,102707.91
2023-03-28T08:38:30.528Z,102707.38
2023-03-28T08:41:09.154Z,102714.97
2023-03-28T08:43:54.178Z,102701.19
2023-03-28T08:46:26.591Z,102675.19
2023-03-28T08:48:54.723Z,102703.91
2023-03-28T08:51:26.764Z,102708.63
2023-03-28T08:54:08.202Z,102710.56
2023-03-28T08:56:45.769Z,102706.16
2023-03-28T08:59:16.716Z,102712.69
2023-03-28T09:01:47.232Z,102707.94
2023-03-28T09:04:35.424Z,102683.22
2023-03-28T09:07:26.578Z,102706.13
2023-03-28T09:10:04.932Z,102698.50
2023-03-28T09:12:31.509Z,102704.63
2023-03-28T09:15:25.037Z,102693.25
2023-03-28T09:18:22.609Z,102678.38
2023-03-28T09:20:54.627Z,102702.41
2023-03-28T09:23:29.934Z,102701.59
2023-03-28T09:26:14.892Z,102625.03
2023-03-28T09:29:00.350Z,102706.38
2023-03-28T09:31:33.163Z,102697.00
2023-03-28T09:34:00.717Z,102670.16
2023-03-28T09:36:41.256Z,102685.19
2023-03-28T09:39:26.064Z,102650.59
2023-03-28T09:42:15.530Z,102692.94
2023-03-28T09:44:54.245Z,102659.38
2023-03-28T09:47:26.643Z,102686.41
2023-03-28T09:50:02.185Z,102666.72
2023-03-28T09:52:39.391Z,102669.22
2023-03-28T09:55:20.199Z,102667.84
2023-03-28T09:58:12.965Z,102652.03
2023-03-28T10:00:49.273Z,102586.72
2023-03-28T10:03:29.450Z,102661.09
2023-03-28T10:05:59.887Z,102521.88
2023-03-28T10:08:38.936Z,102652.22
2023-03-28T10:11:19.561Z,102656.03
2023-03-28T10:13:50.754Z,102637.38
2023-03-28T10:16:32.402Z,102638.84
2023-03-28T10:19:01.598Z,102641.47
2023-03-28T10:21:34.151Z,102611.28
2023-03-28T10:24:08.911Z,102632.94
2023-03-28T10:26:40.741Z,102629.03
2023-03-28T10:29:13.849Z,102626.59
2023-03-28T10:31:47.986Z,102614.28
2023-03-28T10:34:30.008Z,102609.47
2023-03-28T10:36:56.752Z,102589.22
2023-03-28T10:39:29.444Z,102611.50
2023-03-28T10:42:01.133Z,102603.44
2023-03-28T10:44:35.953Z,102609.09
2023-03-28T10:47:12.117Z,102596.88
2023-03-28T10:49:53.786Z,102599.91
2023-03-28T10:52:48.661Z,102588.00
2023-03-28T10:55:38.253Z,102583.59
2023-03-28T10:58:22.087Z,102592.56
2023-03-28T11:00:54.586Z,102578.06
2023-03-28T11:03:21.995Z,102584.00
2023-03-28T11:06:08.786Z,102565.41
2023-03-28T11:09:06.735Z,102574.06
2023-03-28T11:11:41.522Z,102562.78
2023-03-28T11:14:26.969Z,102549.53
2023-03-28T11:17:01.454Z,102546.88
2023-03-28T11:19:42.988Z,102549.84
2023-03-28T11:22:34.484Z,102537.63
2023-03-28T11:25:21.882Z,102518.06
2023-03-28T11:28:01.409Z,102540.25
2023-03-28T11:30:33.186Z,102502.22
2023-03-28T11:33:15.408Z,102452.53
2023-03-28T11:35:53.409Z,102283.03
2023-03-28T11:38:55.915Z,102524.03
2023-03-28T11:41:29.455Z,102532.25
2023-03-28T11:44:09.673Z,102519.81
2023-03-28T11:46:42.732Z,102508.53
2023-03-28T11:49:32.072Z,102508.72
2023-03-28T11:52:01.531Z,102489.75
2023-03-28T11:54:39.622Z,102470.50
2023-03-28T11:57:29.067Z,102464.78
2023-03-28T12:00:00.654Z,102436.41
2023-03-28T12:02:27.313Z,102472.75
2023-03-28T12:05:07.679Z,102456.53
2023-03-28T12:07:48.351Z,102461.03
2023-03-28T12:10:19.485Z,102462.00
2023-03-28T12:13:21.240Z,102443.53
2023-03-28T12:15:52.781Z,102437.69
2023-03-28T12:18:33.652Z,102451.00
2023-03-28T12:21:33.577Z,102423.16
2023-03-28T12:24:11.355Z,102423.00
2023-03-28T12:27:07.796Z,102409.41
2023-03-28T12:30:06.876Z,102390.78
2023-03-28T12:32:43.308Z,102408.06
2023-03-28T12:35:51.187Z,102406.81
2023-03-28T12:39:00.656Z,102398.09
2023-03-28T12:41:31.910Z,102382.81
2023-03-28T12:44:06.357Z,102390.22
2023-03-28T12:46:53.259Z,102404.41
2023-03-28T12:49:26.423Z,102405.31
2023-03-28T12:51:56.753Z,102323.31
2023-03-28T12:54:27.149Z,102401.75
2023-03-28T12:57:07.246Z,102402.25
2023-03-28T12:59:40.635Z,102392.41
2023-03-28T13:02:15.813Z,102405.34
2023-03-28T13:05:00.362Z,102403.25
2023-03-28T13:07:37.380Z,102398.28
2023-03-28T13:10:07.652Z,102388.06
2023-03-28T13:12:37.206Z,102387.66
2023-03-28T13:15:26.150Z,102389.25
2023-03-28T13:18:17.992Z,102390.38
2023-03-28T13:20:48.653Z,102388.09
2023-03-28T13:23:17.740Z,102373.00
2023-03-28T13:25:54.594Z,102354.69
2023-03-28T13:28:29.815Z,102361.66
2023-03-28T13:31:12.221Z,102368.09
2023-03-28T13:34:01.734Z,102357.84
2023-03-28T13:36:29.802Z,102360.03
2023-03-28T13:39:18.863Z,102363.28
2023-03-28T13:41:45.365Z,102362.09
2023-03-28T13:44:16.331Z,102357.50
2023-03-28T13:46:45.619Z,102350.22
2023-03-28T13:49:12.314Z,102339.09
2023-03-28T13:51:38.810Z,102335.41
2023-03-28T13:54:05.735Z,102321.19
2023-03-28T13:56:36.413Z,102315.19
2023-03-28T13:59:14.455Z,102321.47
2023-03-28T14:01:55.358Z,102281.72
2023-03-28T14:04:25.317Z,102263.63
2023-03-28T14:06:55.349Z,102280.00
2023-03-28T14:09:33.968Z,102302.75
2023-03-28T14:12:12.189Z,102302.13
2023-03-28T14:14:44.394Z,102287.72
2023-03-28T14:17:15.352Z,102249.69
2023-03-28T14:19:51.179Z,102278.38
2023-03-28T14:22:21.240Z,102286.81
2023-03-28T14:24:51.727Z,102267.06
2023-03-28T14:27:45.448Z,102264.66
2023-03-28T14:30:25.087Z,102259.06
2023-03-28T14:32:59.240Z,102261.06
2023-03-28T14:35:38.810Z,102244.81
2023-03-28T14:38:11.395Z,102251.13
2023-03-28T14:40:42.227Z,102248.97
2023-03-28T14:43:16.161Z,102246.59
2023-03-28T14:45:48.888Z,102221.25
2023-03-28T14:48:19.750Z,102216.41
2023-03-28T14:50:49.211Z,102225.69
2023-03-28T14:53:21.405Z,102211.44
2023-03-28T14:55:54.527Z,102201.38
2023-03-28T14:58:22.768Z,102147.34
2023-03-28T15:00:54.398Z,102181.34
2023-03-28T15:03:43.152Z,102197.84
2023-03-28T15:06:18.644Z,102175.25
2023-03-28T15:08:45.917Z,102158.50
2023-03-28T15:11:20.561Z,102162.47
2023-03-28T15:13:50.426Z,102153.94
2023-03-28T15:16:21.384Z,102158.25
2023-03-28T15:18:57.375Z,102158.94
2023-03-28T15:21:24.528Z,102024.72
2023-03-28T15:23:59.527Z,102146.97
2023-03-28T15:26:55.328Z,102145.94
2023-03-28T15:29:25.116Z,102145.75
2023-03-28T15:32:04.555Z,102146.81
2023-03-28T15:34:33.944Z,102137.88
2023-03-28T15:37:02.953Z,102102.63
2023-03-28T15:39:34.915Z,102067.53
2023-03-28T15:42:21.433Z,102146.81
2023-03-28T15:44:57.148Z,102131.94
2023-03-28T15:47:35.570Z,102119.63
2023-03-28T15:50:24.433Z,102125.88
2023-03-28T15:53:00.186Z,102111.28
2023-03-28T15:55:33.020Z,102111.97
2023-03-28T15:58:00.038Z,102104.06
2023-03-28T16:00:58.704Z,102107.53
2023-03-28T16:03:25.255Z,102119.50
2023-03-28T16:06:10.259Z,102111.09
2023-03-28T16:08:48.442Z,102101.94
2023-03-28T16:11:21.744Z,102105.44
2023-03-28T16:13:48.344Z,102087.03
2023-03-28T16:16:24.676Z,102099.22
2023-03-28T16:18:54.501Z,102082.09
2023-03-28T16:21:21.232Z,102084.31
2023-03-28T16:23:48.153Z,101912.63
2023-03-28T16:26:17.152Z,102010.38
2023-03-28T16:28:43.704Z,102083.97
2023-03-28T16:31:15.055Z,102091.31
2023-03-28T16:33:49.378Z,102085.63
2023-03-28T16:36:16.292Z,102090.47
2023-03-28T16:38:42.948Z,102096.06
2023-03-28T16:41:12.501Z,102084.09
2023-03-28T16:43:40.229Z,102090.09
2023-03-28T16:46:12.365Z,102081.66
2023-03-28T16:48:41.860Z,102091.06
2023-03-28T16:51:08.689Z,102071.69
2023-03-28T16:53:36.928Z,102087.34
2023-03-28T16:56:05.161Z,102083.34
2023-03-28T16:58:31.761Z,102086.19
2023-03-28T17:01:07.101Z,102075.91
2023-03-28T17:03:34.133Z,102099.69
2023-03-28T17:06:05.893Z,102042.69
2023-03-28T17:08:32.438Z,102058.09
2023-03-28T17:11:00.298Z,102080.81
2023-03-28T17:13:28.078Z,102064.34
2023-03-28T17:15:56.368Z,102089.56
2023-03-28T17:18:27.679Z,102058.16
2023-03-28T17:21:03.467Z,102073.72
2023-03-28T17:23:33.290Z,102068.22
2023-03-28T17:26:00.740Z,102050.03
2023-03-28T17:28:29.229Z,102041.06
2023-03-28T17:30:58.557Z,102056.72
2023-03-28T17:33:25.758Z,102062.53
2023-03-28T17:35:52.408Z,102033.91
2023-03-28T17:38:18.984Z,102041.00
2023-03-28T17:40:47.267Z,102051.56
2023-03-28T17:43:13.919Z,102047.31
2023-03-28T17:45:40.509Z,102026.78
2023-03-28T17:48:07.831Z,102036.47
2023-03-28T17:50:34.389Z,102024.41
2023-03-28T17:53:03.224Z,102048.13
2023-03-28T17:55:30.053Z,102048.59
2023-03-28T17:57:56.775Z,102043.59
2023-03-28T18:00:23.361Z,102046.75
2023-03-28T18:02:53.125Z,102042.88
2023-03-28T18:05:22.322Z,102041.34
2023-03-28T18:07:52.032Z,102043.44
2023-03-28T18:10:23.660Z,101971.56
2023-03-28T18:12:51.541Z,102045.31
2023-03-28T18:15:18.211Z,102044.78
2023-03-28T18:17:45.360Z,102045.88
2023-03-28T18:20:12.741Z,102046.09
2023-03-28T18:22:39.584Z,102047.63
2023-03-28T18:25:06.811Z,102057.41
2023-03-28T18:27:33.461Z,102046.31
2023-03-28T18:30:06.513Z,102064.06
2023-03-28T18:32:35.353Z,102066.03
2023-03-28T18:35:02.290Z,102054.38
2023-03-28T18:37:32.796Z,102061.44
2023-03-28T18:40:00.282Z,102051.53
2023-03-28T18:42:27.230Z,102058.72
2023-03-28T18:44:53.851Z,102051.75
2023-03-28T18:47:20.489Z,102056.97
2023-03-28T18:49:47.031Z,102045.78
2023-03-28T18:52:19.430Z,102041.13
2023-03-28T18:54:46.762Z,101998.19
2023-03-28T18:57:16.078Z,102048.59
2023-03-28T18:59:42.691Z,102042.63
2023-03-28T19:02:13.771Z,102035.41
2023-03-28T19:04:42.694Z,102019.56
2023-03-28T19:07:10.042Z,102022.19
2023-03-28T19:09:36.890Z,102025.84
2023-03-28T19:12:03.989Z,102026.94
2023-03-28T19:14:33.166Z,102015.63
2023-03-28T19:17:02.534Z,102020.63
2023-03-28T19:19:29.237Z,102005.75
2023-03-28T19:21:56.133Z,102005.81
2023-03-28T19:24:23.475Z,101998.06
2023-03-28T19:26:50.328Z,101991.56
2023-03-28T19:29:17.258Z,101990.13
2023-03-28T19:31:43.969Z,101988.84
2023-03-28T19:34:19.632Z,101994.28
2023-03-28T19:36:46.369Z,101993.69
2023-03-28T19:39:13.471Z,101993.16
2023-03-28T19:41:40.575Z,101960.94
2023-03-28T19:44:09.495Z,101975.53
2023-03-28T19:46:38.782Z,101913.28
2023-03-28T19:49:11.423Z,101942.13
2023-03-28T19:51:40.377Z,101973.75
2023-03-28T19:54:07.170Z,101961.69
2023-03-28T19:56:34.019Z,101933.84
2023-03-28T19:59:00.648Z,101964.50
2023-03-28T20:01:27.570Z,101955.03
2023-03-28T20:03:54.222Z,101951.56
2023-03-28T20:06:24.576Z,101960.78
2023-03-28T20:08:53.604Z,101951.25
2023-03-28T20:11:20.560Z,101979.31
2023-03-28T20:13:47.218Z,101945.81
2023-03-28T20:16:14.683Z,101957.81
2023-03-28T20:18:41.871Z,101957.94
2023-03-28T20:21:11.762Z,101955.31
2023-03-28T20:23:41.205Z,101946.03
2023-03-28T20:26:15.475Z,101963.78
2023-03-28T20:28:42.240Z,101923.97
2023-03-28T20:31:12.839Z,101944.63
2023-03-28T20:33:40.826Z,101938.41
2023-03-28T20:36:07.995Z,101939.75
2023-03-28T20:38:34.712Z,101940.16
2023-03-28T20:41:01.924Z,101933.09
2023-03-28T20:43:29.589Z,101925.34
2023-03-28T20:46:01.636Z,101926.03
2023-03-28T20:48:36.030Z,101925.25
2023-03-28T20:51:14.344Z,101920.03
2023-03-28T20:53:44.885Z,101919.28
2023-03-28T20:56:13.571Z,101907.81
2023-03-28T20:58:44.174Z,101872.22
2023-03-28T21:01:17.670Z,101901.09
2023-03-28T21:03:51.106Z,101900.31
2023-03-28T21:06:21.427Z,101898.97
2023-03-28T21:08:50.266Z,101839.44
2023-03-28T21:11:26.389Z,101906.94
2023-03-28T21:13:53.647Z,101892.72
2023-03-28T21:16:21.590Z,101891.84
2023-03-28T21:18:48.797Z,101896.69
2023-03-28T21:21:17.578Z,101898.53
2023-03-28T21:23:47.734Z,101885.16
2023-03-28T21:26:17.389Z,101896.50
2023-03-28T21:28:45.031Z,101864.97
2023-03-28T21:31:15.489Z,101884.47
2023-03-28T21:33:45.776Z,101884.56
2023-03-28T21:36:17.177Z,101884.38
2023-03-28T21:38:44.836Z,101887.84
2023-03-28T21:41:14.447Z,101814.53
2023-03-28T21:43:44.502Z,101884.19
2023-03-28T21:46:12.757Z,101805.94
2023-03-28T21:48:44.788Z,101883.19
2023-03-28T21:51:15.559Z,101833.06
2023-03-28T21:53:42.415Z,101873.22
2023-03-28T21:56:11.579Z,101863.53
2023-03-28T21:58:38.373Z,101768.69
2023-03-28T22:01:08.298Z,101789.06
2023-03-28T22:03:38.430Z,101774.19
2023-03-28T22:06:07.860Z,101847.06
2023-03-28T22:08:34.463Z,101848.25
2023-03-28T22:11:05.088Z,101834.09
2023-03-28T22:13:32.022Z,101855.19
2023-03-28T22:16:02.531Z,101848.00
2023-03-28T22:18:30.785Z,101838.34
2023-03-28T22:21:02.624Z,101852.59
2023-03-28T22:23:30.138Z,101847.91
2023-03-28T22:25:58.533Z,101764.31
2023-03-28T22:28:27.339Z,101834.59
2023-03-28T22:30:55.194Z,101830.78
2023-03-28T22:33:25.470Z,101830.78
2023-03-28T22:35:53.100Z,101822.63
2023-03-28T22:38:19.974Z,101819.91
2023-03-28T22:40:47.613Z,101812.75
2023-03-28T22:43:15.004Z,101813.94
2023-03-28T22:45:41.835Z,101683.66
2023-03-28T22:48:20.346Z,101820.13
2023-03-28T22:50:47.376Z,101816.56
2023-03-28T22:53:15.380Z,101788.66
2023-03-28T22:55:44.608Z,101785.94
2023-03-28T22:58:11.974Z,101762.16
2023-03-28T23:00:39.253Z,101775.84
2023-03-28T23:03:07.998Z,101776.81
2023-03-28T23:05:37.932Z,101758.25
2023-03-28T23:08:05.608Z,101736.50
2023-03-28T23:10:32.335Z,101769.56
2023-03-28T23:12:59.561Z,101765.31
2023-03-28T23:15:26.897Z,101765.97
2023-03-28T23:17:53.644Z,101762.59
2023-03-28T23:20:26.595Z,101766.84
2023-03-28T23:22:55.559Z,101760.44
2023-03-28T23:25:22.440Z,101755.91
2023-03-28T23:27:49.082Z,101743.06
2023-03-28T23:30:16.643Z,101711.13
2023-03-28T23:32:45.796Z,101743.09
2023-03-28T23:35:12.332Z,101718.53
2023-03-28T23:37:41.741Z,101647.19
2023-03-28T23:40:15.068Z,101726.38
2023-03-28T23:42:47.004Z,101724.06
2023-03-28T23:45:15.152Z,101724.63
2023-03-28T23:47:43.446Z,101741.75
2023-03-28T23:50:13.829Z,101718.00
2023-03-28T23:52:42.801Z,101703.84
2023-03-28T23:55:09.933Z,101710.72
2023-03-28T23:57:36.959Z,101720.16
